createdAt,value
2017-11-11T00:01:28.812Z,51.78
2017-11-11T00:03:56.267Z,44.63
2017-11-11T00:06:23.008Z,60.38
2017-11-11T00:08:50.434Z,45.92
2017-11-11T00:11:17.124Z,56.13
2017-11-11T00:13:44.513Z,45.80
2017-11-11T00:16:11.196Z,41.05
2017-11-11T00:18:38.194Z,51.15
2017-11-11T00:21:04.925Z,41.37
2017-11-11T00:23:32.346Z,40.20
2017-11-11T00:25:59.995Z,35.72
2017-11-11T00:28:26.649Z,34.55
2017-11-11T00:30:53.319Z,28.65
2017-11-11T00:33:20.797Z,36.88
2017-11-11T00:35:47.484Z,29.85
2017-11-11T00:38:14.252Z,37.90
2017-11-11T00:40:41.040Z,40.35
2017-11-11T00:43:07.715Z,38.35
2017-11-11T00:45:34.403Z,37.15
2017-11-11T00:48:01.056Z,38.53
2017-11-11T00:50:28.452Z,40.63
2017-11-11T00:52:55.131Z,42.78
2017-11-11T00:55:21.827Z,34.40
2017-11-11T00:57:48.509Z,44.65
2017-11-11T01:00:15.306Z,42.47
2017-11-11T01:02:41.972Z,48.25
2017-11-11T01:05:08.635Z,43.90
2017-11-11T01:07:35.288Z,50.72
2017-11-11T01:10:02.025Z,43.72
2017-11-11T01:12:28.735Z,58.28
2017-11-11T01:14:55.385Z,46.67
2017-11-11T01:17:22.120Z,36.35
2017-11-11T01:19:49.101Z,40.67
2017-11-11T01:22:15.754Z,39.97
2017-11-11T01:24:42.460Z,42.33
2017-11-11T01:27:09.127Z,48.10
2017-11-11T01:29:35.796Z,44.22
2017-11-11T01:32:02.480Z,45.80
2017-11-11T01:34:29.674Z,42.55
2017-11-11T01:36:56.336Z,39.10
2017-11-11T01:39:23.080Z,45.55
2017-11-11T01:41:49.737Z,37.97
2017-11-11T01:44:17.172Z,35.03
2017-11-11T01:46:43.855Z,40.58
2017-11-11T01:49:10.545Z,42.80
2017-11-11T01:51:37.991Z,41.70
2017-11-11T01:54:04.678Z,37.40
2017-11-11T01:56:31.432Z,44.72
2017-11-11T01:58:58.981Z,39.00
2017-11-11T02:01:26.483Z,37.65
2017-11-11T02:03:54.276Z,45.33
2017-11-11T02:06:21.002Z,43.33
2017-11-11T02:08:47.772Z,33.28
2017-11-11T02:11:14.451Z,39.88
2017-11-11T02:13:41.869Z,32.67
2017-11-11T02:16:08.576Z,42.65
2017-11-11T02:18:35.278Z,35.80
2017-11-11T02:21:01.981Z,51.80
2017-11-11T02:23:28.754Z,54.45
2017-11-11T02:25:55.471Z,42.08
2017-11-11T02:28:22.230Z,34.75
2017-11-11T02:30:49.007Z,38.08
2017-11-11T02:33:15.737Z,37.10
2017-11-11T02:35:42.483Z,39.60
2017-11-11T02:38:09.251Z,53.60
2017-11-11T02:40:36.811Z,29.77
2017-11-11T02:43:03.553Z,36.45
2017-11-11T02:45:30.307Z,38.67
2017-11-11T02:47:57.774Z,34.80
2017-11-11T02:50:25.360Z,31.37
2017-11-11T02:52:52.072Z,34.55
2017-11-11T02:55:18.749Z,33.85
2017-11-11T02:57:45.473Z,32.83
2017-11-11T03:00:13.040Z,42.95
2017-11-11T03:02:39.771Z,53.65
2017-11-11T03:05:07.214Z,33.65
2017-11-11T03:07:33.922Z,36.47
2017-11-11T03:10:00.619Z,32.53
2017-11-11T03:12:28.015Z,31.40
2017-11-11T03:14:54.809Z,39.58
2017-11-11T03:17:21.516Z,36.38
2017-11-11T03:19:48.539Z,42.33
2017-11-11T03:22:15.251Z,35.03
2017-11-11T03:24:42.658Z,34.47
2017-11-11T03:27:09.330Z,41.70
2017-11-11T03:29:35.998Z,33.40
2017-11-11T03:32:02.643Z,42.10
2017-11-11T03:34:30.051Z,36.90
2017-11-11T03:36:56.719Z,35.63
2017-11-11T03:39:23.368Z,51.33
2017-11-11T03:41:50.043Z,37.25
2017-11-11T03:44:17.476Z,40.42
2017-11-11T03:46:44.115Z,40.78
2017-11-11T03:49:10.765Z,43.95
2017-11-11T03:51:38.335Z,45.35
2017-11-11T03:54:05.004Z,36.83
2017-11-11T03:56:31.649Z,38.20
2017-11-11T03:58:58.345Z,56.85
2017-11-11T04:01:25.813Z,46.17
2017-11-11T04:03:52.508Z,45.78
2017-11-11T04:06:19.288Z,42.55
2017-11-11T04:08:45.956Z,41.55
2017-11-11T04:11:12.617Z,58.45
2017-11-11T04:13:40.056Z,55.67
2017-11-11T04:16:06.745Z,55.67
2017-11-11T04:18:33.393Z,43.25
2017-11-11T04:21:00.054Z,51.37
2017-11-11T04:23:27.649Z,37.58
2017-11-11T04:25:54.303Z,36.42
2017-11-11T04:28:21.733Z,41.05
2017-11-11T04:30:48.381Z,38.00
2017-11-11T04:33:15.028Z,40.40
2017-11-11T04:35:41.733Z,48.78
2017-11-11T04:38:08.386Z,50.10
2017-11-11T04:40:35.058Z,50.45
2017-11-11T04:43:01.783Z,52.42
2017-11-11T04:45:29.314Z,40.08
2017-11-11T04:47:55.973Z,42.85
2017-11-11T04:50:22.994Z,45.45
2017-11-11T04:52:49.671Z,41.35
2017-11-11T04:55:17.112Z,35.72
2017-11-11T04:57:43.804Z,35.45
2017-11-11T05:00:10.589Z,28.00
2017-11-11T05:02:37.281Z,31.12
2017-11-11T05:05:04.835Z,28.87
2017-11-11T05:07:31.524Z,31.40
2017-11-11T05:09:58.916Z,29.17
2017-11-11T05:12:25.777Z,28.25
2017-11-11T05:14:52.433Z,26.67
2017-11-11T05:17:19.097Z,23.45
2017-11-11T05:19:45.826Z,25.12
2017-11-11T05:22:12.540Z,24.10
2017-11-11T05:24:39.194Z,27.67
2017-11-11T05:27:05.892Z,30.60
2017-11-11T05:29:32.587Z,31.67
2017-11-11T05:31:59.250Z,29.10
2017-11-11T05:34:25.974Z,29.77
2017-11-11T05:36:52.673Z,37.40
2017-11-11T05:39:19.376Z,29.80
2017-11-11T05:41:46.029Z,29.40
2017-11-11T05:44:13.662Z,38.95
2017-11-11T05:46:41.051Z,31.73
2017-11-11T05:49:08.474Z,33.22
2017-11-11T05:51:35.141Z,33.70
2017-11-11T05:54:01.781Z,36.88
2017-11-11T05:56:28.465Z,43.15
2017-11-11T05:58:55.125Z,38.45
2017-11-11T06:01:21.801Z,35.65
2017-11-11T06:03:48.559Z,35.45
2017-11-11T06:06:15.220Z,32.95
2017-11-11T06:08:42.630Z,34.45
2017-11-11T06:11:09.302Z,32.03
2017-11-11T06:13:36.546Z,33.10
2017-11-11T06:16:03.201Z,25.65
2017-11-11T06:18:29.896Z,24.17
2017-11-11T06:20:56.835Z,26.02
2017-11-11T06:23:23.530Z,25.23
2017-11-11T06:25:50.225Z,27.10
2017-11-11T06:28:16.904Z,26.77
2017-11-11T06:30:43.539Z,23.38
2017-11-11T06:33:10.206Z,19.95
2017-11-11T06:35:36.907Z,19.20
2017-11-11T06:38:03.895Z,17.98
2017-11-11T06:40:30.596Z,15.50
2017-11-11T06:42:57.575Z,15.03
2017-11-11T06:45:24.218Z,16.70
2017-11-11T06:47:50.906Z,13.47
2017-11-11T06:50:18.304Z,13.60
2017-11-11T06:52:45.011Z,13.53
2017-11-11T06:55:11.705Z,12.50
2017-11-11T06:57:38.384Z,14.87
2017-11-11T07:00:05.812Z,12.60
2017-11-11T07:02:32.574Z,15.30
2017-11-11T07:04:59.248Z,12.50
2017-11-11T07:07:25.959Z,15.23
2017-11-11T07:09:52.698Z,12.00
2017-11-11T07:12:19.435Z,9.90
2017-11-11T07:14:46.148Z,12.00
2017-11-11T07:17:12.889Z,11.93
2017-11-11T07:19:39.650Z,10.73
2017-11-11T07:22:06.327Z,9.93
2017-11-11T07:24:33.070Z,11.27
2017-11-11T07:27:00.512Z,11.30
2017-11-11T07:29:27.148Z,15.47
2017-11-11T07:31:53.860Z,9.50
2017-11-11T07:34:20.538Z,10.00
2017-11-11T07:36:47.250Z,9.67
2017-11-11T07:39:13.954Z,10.83
2017-11-11T07:41:40.606Z,11.70
2017-11-11T07:44:08.894Z,9.60
2017-11-11T07:46:36.339Z,10.10
2017-11-11T07:49:03.003Z,10.47
2017-11-11T07:51:29.703Z,10.50
2017-11-11T07:53:56.389Z,10.70
2017-11-11T07:56:23.814Z,11.20
2017-11-11T07:58:50.478Z,12.43
2017-11-11T08:01:18.001Z,9.57
2017-11-11T08:03:44.657Z,9.60
2017-11-11T08:06:11.343Z,9.93
2017-11-11T08:08:38.097Z,10.20
2017-11-11T08:11:04.771Z,10.90
2017-11-11T08:13:32.485Z,9.63
2017-11-11T08:15:59.996Z,9.20
2017-11-11T08:18:26.714Z,9.93
2017-11-11T08:20:53.420Z,9.20
2017-11-11T08:23:20.895Z,10.07
2017-11-11T08:25:48.340Z,9.30
2017-11-11T08:28:15.027Z,10.90
2017-11-11T08:30:41.787Z,9.23
2017-11-11T08:33:08.449Z,8.60
2017-11-11T08:35:35.111Z,10.33
2017-11-11T08:38:01.935Z,12.40
2017-11-11T08:40:28.643Z,13.60
2017-11-11T08:42:55.346Z,13.33
2017-11-11T08:45:22.071Z,11.93
2017-11-11T08:47:48.752Z,14.10
2017-11-11T08:50:16.166Z,13.10
2017-11-11T08:52:42.831Z,13.00
2017-11-11T08:55:09.541Z,14.57
2017-11-11T08:57:36.958Z,13.60
2017-11-11T09:00:04.410Z,15.33
2017-11-11T09:02:32.828Z,15.33
2017-11-11T09:04:59.515Z,12.87
2017-11-11T09:07:26.226Z,12.40
2017-11-11T09:09:52.900Z,12.50
2017-11-11T09:12:19.558Z,12.60
2017-11-11T09:14:47.014Z,12.00
2017-11-11T09:17:14.414Z,13.93
2017-11-11T09:19:41.074Z,12.77
2017-11-11T09:22:07.759Z,12.83
2017-11-11T09:24:35.095Z,19.17
2017-11-11T09:27:01.756Z,17.03
2017-11-11T09:29:28.444Z,12.03
2017-11-11T09:31:55.122Z,13.50
2017-11-11T09:34:21.784Z,14.93
2017-11-11T09:36:48.465Z,14.37
2017-11-11T09:39:15.184Z,12.97
2017-11-11T09:41:42.588Z,12.47
2017-11-11T09:44:09.261Z,12.20
2017-11-11T09:46:35.912Z,12.20
2017-11-11T09:49:02.580Z,11.97
2017-11-11T09:51:30.020Z,12.37
2017-11-11T09:53:56.708Z,9.07
2017-11-11T09:56:23.416Z,6.97
2017-11-11T09:58:50.873Z,7.17
2017-11-11T10:01:17.556Z,7.47
2017-11-11T10:03:44.250Z,6.60
2017-11-11T10:06:10.980Z,7.03
2017-11-11T10:08:37.621Z,6.67
2017-11-11T10:11:04.297Z,5.73
2017-11-11T10:13:31.746Z,7.70
2017-11-11T10:15:58.455Z,5.17
2017-11-11T10:18:25.107Z,5.33
2017-11-11T10:20:51.814Z,8.23
2017-11-11T10:23:18.446Z,8.60
2017-11-11T10:25:45.143Z,11.90
2017-11-11T10:28:12.835Z,9.87
2017-11-11T10:30:39.527Z,12.00
2017-11-11T10:33:06.245Z,11.20
2017-11-11T10:35:32.987Z,11.20
2017-11-11T10:37:59.668Z,11.50
2017-11-11T10:40:26.412Z,11.93
2017-11-11T10:42:53.185Z,11.63
2017-11-11T10:45:19.902Z,10.23
2017-11-11T10:47:46.592Z,10.47
2017-11-11T10:50:14.083Z,13.50
2017-11-11T10:52:40.757Z,10.10
2017-11-11T10:55:07.477Z,9.57
2017-11-11T10:57:34.237Z,9.40
2017-11-11T11:00:00.992Z,9.90
2017-11-11T11:02:27.727Z,9.50
2017-11-11T11:04:54.412Z,10.60
2017-11-11T11:07:21.868Z,8.53
2017-11-11T11:09:49.277Z,10.20
2017-11-11T11:12:15.948Z,8.50
2017-11-11T11:14:42.624Z,8.67
2017-11-11T11:17:10.033Z,10.20
2017-11-11T11:19:36.742Z,10.50
2017-11-11T11:22:03.474Z,12.73
2017-11-11T11:24:30.919Z,9.57
2017-11-11T11:26:58.411Z,10.27
2017-11-11T11:29:25.131Z,8.90
2017-11-11T11:31:52.622Z,11.20
2017-11-11T11:34:19.349Z,12.33
2017-11-11T11:36:46.872Z,8.90
2017-11-11T11:39:13.580Z,8.50
2017-11-11T11:41:40.250Z,8.73
2017-11-11T11:44:06.944Z,8.93
2017-11-11T11:46:34.356Z,8.60
2017-11-11T11:49:01.040Z,11.90
2017-11-11T11:51:28.465Z,10.67
2017-11-11T11:53:55.127Z,12.10
2017-11-11T11:56:21.818Z,10.23
2017-11-11T11:58:48.495Z,10.70
2017-11-11T12:01:15.164Z,11.10
2017-11-11T12:03:42.580Z,13.20
2017-11-11T12:06:09.270Z,11.30
2017-11-11T12:08:36.682Z,12.63
2017-11-11T12:11:03.374Z,11.27
2017-11-11T12:13:30.807Z,15.57
2017-11-11T12:15:57.451Z,13.83
2017-11-11T12:18:25.717Z,12.83
2017-11-11T12:20:52.400Z,12.07
2017-11-11T12:23:19.096Z,12.17
2017-11-11T12:25:45.760Z,14.10
2017-11-11T12:28:12.410Z,12.87
2017-11-11T12:30:39.057Z,13.60
2017-11-11T12:33:06.488Z,14.07
2017-11-11T12:35:33.200Z,11.83
2017-11-11T12:37:59.896Z,13.17
2017-11-11T12:40:26.647Z,11.20
2017-11-11T12:42:53.315Z,12.13
2017-11-11T12:45:20.058Z,13.73
2017-11-11T12:47:46.778Z,11.50
2017-11-11T12:50:14.174Z,11.07
2017-11-11T12:52:40.878Z,14.07
2017-11-11T12:55:07.630Z,12.57
2017-11-11T12:57:35.064Z,18.73
2017-11-11T13:00:01.741Z,12.83
2017-11-11T13:02:29.192Z,11.40
2017-11-11T13:04:56.602Z,10.97
2017-11-11T13:07:23.284Z,11.27
2017-11-11T13:09:50.020Z,12.77
2017-11-11T13:12:16.708Z,12.03
2017-11-11T13:14:43.409Z,11.60
2017-11-11T13:17:10.087Z,11.13
2017-11-11T13:19:37.484Z,10.70
2017-11-11T13:22:04.172Z,11.30
2017-11-11T13:24:31.653Z,14.03
2017-11-11T13:26:58.315Z,10.63
2017-11-11T13:29:24.958Z,12.10
2017-11-11T13:31:51.647Z,14.70
2017-11-11T13:34:18.327Z,11.23
2017-11-11T13:36:45.024Z,15.97
2017-11-11T13:39:11.784Z,12.70
2017-11-11T13:41:39.220Z,12.70
2017-11-11T13:44:06.003Z,12.70
2017-11-11T13:46:34.410Z,12.50
2017-11-11T13:49:01.135Z,12.33
2017-11-11T13:51:28.545Z,12.83
2017-11-11T13:53:55.273Z,12.83
2017-11-11T13:56:21.935Z,12.23
2017-11-11T13:58:48.650Z,14.33
2017-11-11T14:01:15.378Z,12.90
2017-11-11T14:03:42.111Z,12.20
2017-11-11T14:06:09.525Z,15.03
2017-11-11T14:08:36.281Z,12.40
2017-11-11T14:11:02.991Z,10.90
2017-11-11T14:13:29.700Z,11.63
2017-11-11T14:15:57.439Z,10.77
2017-11-11T14:18:24.095Z,13.63
2017-11-11T14:20:50.965Z,12.53
2017-11-11T14:23:18.447Z,14.27
2017-11-11T14:25:45.133Z,10.97
2017-11-11T14:28:11.877Z,11.27
2017-11-11T14:30:38.565Z,13.37
2017-11-11T14:33:05.315Z,12.83
2017-11-11T14:35:32.048Z,11.70
2017-11-11T14:37:58.740Z,13.27
2017-11-11T14:40:25.448Z,11.30
2017-11-11T14:42:52.141Z,11.03
2017-11-11T14:45:18.904Z,11.07
2017-11-11T14:47:46.307Z,11.50
2017-11-11T14:50:12.976Z,11.20
2017-11-11T14:52:39.675Z,12.23
2017-11-11T14:55:06.402Z,11.10
2017-11-11T14:57:34.005Z,11.10
2017-11-11T15:00:00.736Z,14.93
2017-11-11T15:02:27.398Z,11.73
2017-11-11T15:04:55.207Z,13.00
2017-11-11T15:07:22.391Z,12.23
2017-11-11T15:09:49.816Z,14.77
2017-11-11T15:12:16.557Z,11.17
2017-11-11T15:14:43.549Z,14.03
2017-11-11T15:17:10.251Z,12.97
2017-11-11T15:19:37.015Z,11.47
2017-11-11T15:22:04.486Z,16.60
2017-11-11T15:24:31.971Z,13.50
2017-11-11T15:26:58.716Z,11.83
2017-11-11T15:29:25.448Z,15.10
2017-11-11T15:31:52.134Z,10.87
2017-11-11T15:34:18.791Z,13.77
2017-11-11T15:36:45.504Z,16.00
2017-11-11T15:39:12.917Z,12.47
2017-11-11T15:41:39.632Z,13.67
2017-11-11T15:44:06.409Z,15.53
2017-11-11T15:46:33.857Z,13.10
2017-11-11T15:49:01.309Z,12.90
2017-11-11T15:51:28.029Z,12.60
2017-11-11T15:53:54.702Z,14.97
2017-11-11T15:56:22.287Z,13.90
2017-11-11T15:58:49.736Z,15.33
2017-11-11T16:01:17.212Z,15.10
2017-11-11T16:03:44.683Z,15.10
2017-11-11T16:06:11.520Z,15.20
2017-11-11T16:08:38.993Z,19.33
2017-11-11T16:11:05.713Z,16.40
2017-11-11T16:13:33.235Z,19.50
2017-11-11T16:15:59.947Z,17.53
2017-11-11T16:18:27.131Z,18.97
2017-11-11T16:20:53.822Z,24.27
2017-11-11T16:23:21.270Z,22.47
2017-11-11T16:25:47.958Z,24.00
2017-11-11T16:28:15.630Z,31.37
2017-11-11T16:30:42.279Z,24.90
2017-11-11T16:33:09.037Z,23.03
2017-11-11T16:35:35.807Z,24.45
2017-11-11T16:38:02.477Z,19.62
2017-11-11T16:40:29.145Z,23.60
2017-11-11T16:42:56.587Z,17.10
2017-11-11T16:45:23.282Z,14.53
2017-11-11T16:47:49.970Z,17.47
2017-11-11T16:50:16.729Z,19.27
2017-11-11T16:52:43.448Z,19.20
2017-11-11T16:55:10.897Z,20.97
2017-11-11T16:57:38.380Z,20.90
2017-11-11T17:00:05.096Z,21.80
2017-11-11T17:02:32.495Z,22.13
2017-11-11T17:04:59.215Z,19.40
2017-11-11T17:07:28.442Z,23.17
2017-11-11T17:09:55.232Z,20.00
2017-11-11T17:12:21.989Z,20.80
2017-11-11T17:14:49.500Z,19.83
2017-11-11T17:17:16.257Z,21.30
2017-11-11T17:19:42.964Z,23.30
2017-11-11T17:22:10.383Z,22.53
2017-11-11T17:24:37.055Z,21.20
2017-11-11T17:27:04.522Z,24.83
2017-11-11T17:29:31.302Z,21.67
2017-11-11T17:31:57.988Z,21.20
2017-11-11T17:34:24.718Z,19.25
2017-11-11T17:36:51.419Z,19.57
2017-11-11T17:39:18.184Z,19.87
2017-11-11T17:41:44.916Z,17.73
2017-11-11T17:44:11.672Z,17.37
2017-11-11T17:46:38.411Z,16.53
2017-11-11T17:49:05.135Z,18.03
2017-11-11T17:51:31.838Z,15.90
2017-11-11T17:53:58.558Z,18.07
2017-11-11T17:56:25.402Z,18.20
2017-11-11T17:58:52.106Z,16.07
2017-11-11T18:01:18.888Z,18.10
2017-11-11T18:03:45.640Z,18.73
2017-11-11T18:06:12.633Z,17.10
2017-11-11T18:08:40.058Z,19.50
2017-11-11T18:11:06.805Z,15.37
2017-11-11T18:13:33.517Z,15.63
2017-11-11T18:16:00.199Z,20.17
2017-11-11T18:18:27.265Z,17.73
2017-11-11T18:20:54.687Z,16.30
2017-11-11T18:23:21.365Z,19.33
2017-11-11T18:25:48.083Z,17.53
2017-11-11T18:28:14.742Z,21.93
2017-11-11T18:30:41.449Z,27.60
2017-11-11T18:33:08.163Z,24.80
2017-11-11T18:35:34.844Z,19.50
2017-11-11T18:38:01.544Z,22.13
2017-11-11T18:40:28.489Z,19.33
2017-11-11T18:42:55.903Z,20.65
2017-11-11T18:45:22.596Z,20.83
2017-11-11T18:47:50.045Z,18.40
2017-11-11T18:50:17.509Z,18.70
2017-11-11T18:52:44.916Z,26.90
2017-11-11T18:55:12.231Z,21.47
2017-11-11T18:57:39.696Z,21.20
2017-11-11T19:00:07.164Z,25.77
2017-11-11T19:02:33.907Z,20.10
2017-11-11T19:05:00.663Z,18.70
2017-11-11T19:07:27.476Z,21.90
2017-11-11T19:09:54.206Z,20.00
2017-11-11T19:12:20.950Z,20.10
2017-11-11T19:14:47.644Z,20.70
2017-11-11T19:17:15.199Z,19.53
2017-11-11T19:19:42.046Z,20.40
2017-11-11T19:22:08.948Z,20.87
2017-11-11T19:24:36.486Z,19.73
2017-11-11T19:27:03.168Z,18.02
2017-11-11T19:29:30.629Z,23.38
2017-11-11T19:31:58.108Z,25.17
2017-11-11T19:34:24.801Z,21.00
2017-11-11T19:36:51.511Z,24.67
2017-11-11T19:39:18.235Z,24.43
2017-11-11T19:41:45.648Z,26.93
2017-11-11T19:44:12.370Z,25.57
2017-11-11T19:46:39.064Z,32.00
2017-11-11T19:49:05.737Z,29.40
2017-11-11T19:51:33.316Z,24.53
2017-11-11T19:54:00.033Z,31.67
2017-11-11T19:56:27.456Z,24.40
2017-11-11T19:58:54.170Z,19.45
2017-11-11T20:01:20.932Z,18.62
2017-11-11T20:03:47.759Z,25.53
2017-11-11T20:06:14.457Z,20.83
2017-11-11T20:08:41.930Z,25.25
2017-11-11T20:11:09.422Z,25.77
2017-11-11T20:13:36.319Z,24.20
2017-11-11T20:16:03.045Z,22.27
2017-11-11T20:18:29.791Z,24.83
2017-11-11T20:20:56.484Z,25.45
2017-11-11T20:23:23.166Z,26.58
2017-11-11T20:25:49.873Z,28.03
2017-11-11T20:28:16.603Z,29.35
2017-11-11T20:30:44.055Z,27.87
2017-11-11T20:33:11.524Z,29.60
2017-11-11T20:35:39.866Z,26.02
2017-11-11T20:38:06.874Z,24.95
2017-11-11T20:40:33.576Z,28.75
2017-11-11T20:43:00.253Z,31.10
2017-11-11T20:45:26.966Z,28.50
2017-11-11T20:47:53.728Z,32.47
2017-11-11T20:50:21.408Z,26.17
2017-11-11T20:52:49.119Z,27.75
2017-11-11T20:55:15.860Z,33.45
2017-11-11T20:57:42.546Z,29.27
2017-11-11T21:00:10.001Z,29.90
2017-11-11T21:02:37.440Z,35.50
2017-11-11T21:05:04.197Z,30.25
2017-11-11T21:07:32.014Z,30.10
2017-11-11T21:09:58.737Z,32.67
2017-11-11T21:12:26.163Z,33.10
2017-11-11T21:14:52.891Z,29.25
2017-11-11T21:17:19.569Z,30.98
2017-11-11T21:19:47.059Z,31.67
2017-11-11T21:22:14.713Z,29.25
2017-11-11T21:24:42.126Z,27.42
2017-11-11T21:27:08.845Z,33.60
2017-11-11T21:29:35.605Z,34.10
2017-11-11T21:32:02.423Z,32.50
2017-11-11T21:34:29.130Z,27.58
2017-11-11T21:36:56.744Z,27.62
2017-11-11T21:39:23.474Z,29.20
2017-11-11T21:41:50.209Z,30.23
2017-11-11T21:44:16.935Z,29.40
2017-11-11T21:46:44.375Z,37.17
2017-11-11T21:49:11.077Z,35.92
2017-11-11T21:51:37.934Z,36.60
2017-11-11T21:54:04.733Z,34.38
2017-11-11T21:56:32.148Z,34.45
2017-11-11T21:58:59.477Z,35.28
2017-11-11T22:01:26.164Z,32.33
2017-11-11T22:03:52.856Z,34.58
2017-11-11T22:06:19.656Z,37.17
2017-11-11T22:08:46.376Z,32.80
2017-11-11T22:11:13.065Z,33.13
2017-11-11T22:13:41.469Z,32.85
2017-11-11T22:16:08.160Z,34.50
2017-11-11T22:18:34.814Z,30.67
2017-11-11T22:21:01.522Z,35.00
2017-11-11T22:23:28.230Z,36.08
2017-11-11T22:25:55.708Z,36.25
2017-11-11T22:28:23.185Z,39.20
2017-11-11T22:30:49.884Z,36.90
2017-11-11T22:33:17.365Z,35.08
2017-11-11T22:35:44.117Z,35.78
2017-11-11T22:38:10.803Z,35.55
2017-11-11T22:40:37.500Z,33.58
2017-11-11T22:43:04.198Z,44.65
2017-11-11T22:45:30.904Z,36.50
2017-11-11T22:47:57.848Z,36.95
2017-11-11T22:50:24.571Z,36.97
2017-11-11T22:52:52.000Z,33.00
2017-11-11T22:55:18.710Z,38.97
2017-11-11T22:57:45.396Z,36.55
2017-11-11T23:00:12.972Z,40.53
2017-11-11T23:02:40.443Z,36.88
2017-11-11T23:05:08.807Z,43.15
2017-11-11T23:07:36.467Z,43.15
2017-11-11T23:10:03.778Z,41.25
2017-11-11T23:12:30.516Z,36.40
2017-11-11T23:14:57.203Z,44.70
2017-11-11T23:17:23.861Z,44.67
2017-11-11T23:19:51.244Z,43.80
2017-11-11T23:22:17.968Z,41.40
2017-11-11T23:24:44.707Z,46.70
2017-11-11T23:27:11.422Z,46.72
2017-11-11T23:29:38.110Z,55.85
2017-11-11T23:32:05.550Z,50.40
2017-11-11T23:34:32.321Z,43.47
2017-11-11T23:36:59.326Z,46.33
2017-11-11T23:39:26.040Z,45.10
2017-11-11T23:41:52.831Z,46.00
2017-11-11T23:44:19.506Z,45.25
2017-11-11T23:46:46.928Z,46.67
2017-11-11T23:49:13.604Z,55.30
2017-11-11T23:51:41.004Z,58.42
2017-11-11T23:54:07.692Z,51.97
2017-11-11T23:56:35.914Z,46.78
2017-11-11T23:59:03.521Z,41.08
